Latest Weather Observations for Moorabbin Airport

IDV60901

Issued at 2:51 pm EDT Saturday 25 March 2017 (issued every 10 minutes, with the page automatically refreshed every 10 minutes)

About weather observations | Map of Melbourne area stations | Latest observations for Melbourne area | Other Formats
Station Details ID: 086077 Name: MOORABBIN AIRPORT Lat: -37.98 Lon: 145.10 Height: 12.1 m
Data from the previous 72 hours. | See also: Recent months at Moorabbin Airport
Date/Time
EDT
Temp
°C
App
Temp
°C
Dew
Point
°C
Rel
Hum
%
Delta-T
°C
Wind Press
QNH
hPa
Press
MSL
hPa
Rain since
9am
mm
Dir  Spd
km/h
Gust
km/h
Spd
kts
Gust
kts
25/02:30pm 29.5 29.0 17.7 49 7.5 N 17 20 9 11 1010.7 1010.7 0.0
25/02:00pm 29.1 28.1 17.6 50 7.3 N 19 28 10 15 1010.9 1010.9 0.0
25/01:30pm 26.9 26.1 17.1 55 6.1 N 17 24 9 13 1011.3 1011.3 0.0
25/01:00pm 27.6 25.4 16.9 52 6.7 N 24 32 13 17 1011.5 1011.5 0.0
25/12:30pm 26.8 24.4 16.4 53 6.4 NNW 24 32 13 17 1012.0 1012.0 0.0
25/12:00pm 26.3 22.7 16.3 54 6.2 N 30 39 16 21 1012.4 1012.4 0.0
25/11:30am 25.4 21.8 16.3 57 5.6 N 30 39 16 21 1012.7 1012.7 0.0
25/11:00am 25.3 22.0 17.0 60 5.1 N 30 39 16 21 1012.7 1012.7 0.0
25/10:30am 24.6 22.9 17.3 64 4.5 N 22 28 12 15 1012.9 1012.9 0.0
25/10:00am 22.1 21.2 15.9 68 3.7 N 15 22 8 12 1013.0 1013.0 0.0
25/09:30am 21.4 21.2 15.7 70 3.4 N 11 13 6 7 1012.7 1012.7 0.0
25/09:00am 20.7 21.0 15.9 74 2.9 N 9 13 5 7 1012.5 1012.5 0.0
25/08:30am 19.8 20.1 15.9 78 2.3 N 9 11 5 6 1012.5 1012.5 0.0
25/08:00am 18.9 19.6 16.0 83 1.7 N 7 9 4 5 1012.3 1012.3 0.0
25/07:30am 18.7 19.9 15.8 83 1.7 NNE 4 7 2 4 1012.2 1012.2 0.0
25/07:00am 18.7 19.9 15.8 83 1.7 ENE 4 7 2 4 1012.1 1012.1 0.0
25/06:30am 18.5 19.2 15.6 83 1.7 S 6 9 3 5 1011.9 1011.9 0.0
25/06:00am 18.7 20.4 15.2 80 2.1 CALM 0 0 0 0 1011.6 1011.6 0.0
25/05:30am 19.1 19.6 15.6 80 2.1 N 7 11 4 6 1011.9 1011.9 0.0
25/05:00am 19.1 18.8 15.4 79 2.2 N 11 13 6 7 1011.7 1011.7 0.0
25/04:30am 19.0 18.3 15.3 79 2.2 N 13 17 7 9 1011.7 1011.7 0.0
25/04:00am 19.0 17.8 16.0 83 1.8 NNE 17 22 9 12 1011.5 1011.5 0.0
25/03:30am 18.0 17.3 15.3 84 1.6 NE 13 15 7 8 1012.6 1012.6 0.0
25/03:00am 17.3 16.3 14.6 84 1.6 NE 13 15 7 8 1013.3 1013.3 0.0
25/02:30am 16.5 16.4 14.0 85 1.4 ESE 7 9 4 5 1014.3 1014.3 0.0
25/02:00am 16.6 16.1 13.9 84 1.5 ESE 9 9 5 5 1014.5 1014.5 0.0
25/01:30am 16.8 17.0 14.1 84 1.5 S 6 7 3 4 1014.8 1014.8 0.0
25/01:00am 17.0 17.1 13.9 82 1.8 SSE 6 7 3 4 1014.5 1014.5 0.0
25/12:30am 16.6 16.5 13.3 81 1.8 ESE 6 6 3 3 1014.4 1014.4 0.0
25/12:00am 17.5 17.6 14.0 80 2.0 ENE 6 7 3 4 1014.5 1014.5 0.0
 
Date/Time
EDT
Temp
°C
App
Temp
°C
Dew
Point
°C
Rel
Hum
%
Delta-T
°C
Wind Press
QNH
hPa
Press
MSL
hPa
Rain since
9am
mm
Dir  Spd
km/h
Gust
km/h
Spd
kts
Gust
kts
24/11:30pm 17.2 17.2 13.5 79 2.1 ENE 6 7 3 4 1015.1 1015.1 0.0
24/11:00pm 17.3 17.1 13.6 79 2.1 ESE 7 9 4 5 1015.0 1015.0 0.0
24/10:30pm 17.5 16.9 13.6 78 2.2 SE 9 11 5 6 1015.4 1015.4 0.0
24/10:00pm 17.8 16.8 13.5 76 2.4 SE 11 13 6 7 1015.3 1015.3 0.0
24/09:30pm 18.7 17.4 13.6 72 2.9 ESE 13 17 7 9 1015.4 1015.4 0.0
24/09:00pm 19.3 18.1 13.9 71 3.1 SE 13 19 7 10 1015.6 1015.6 0.0
24/08:30pm 19.8 18.2 14.0 69 3.3 SE 15 22 8 12 1015.3 1015.3 0.0
24/08:00pm 20.3 18.3 14.0 67 3.6 ESE 17 20 9 11 1015.0 1015.0 0.0
24/07:30pm 21.0 18.7 14.2 65 4.0 ESE 19 24 10 13 1015.3 1015.3 0.0
24/07:00pm 21.8 19.3 14.2 62 4.4 ESE 20 28 11 15 1015.0 1015.0 0.0
24/06:30pm 23.2 20.8 14.5 58 5.1 ESE 20 28 11 15 1014.9 1014.9 0.0
24/06:00pm 23.7 21.3 14.4 56 5.5 SE 20 26 11 14 1015.3 1015.3 0.0
24/05:30pm 24.5 22.7 15.4 57 5.5 ESE 19 24 10 13 1014.8 1014.8 0.0
24/05:00pm 24.0 24.5 15.5 59 5.1 SSW 7 15 4 8 1014.8 1014.8 0.0
24/04:30pm 22.6 21.8 16.2 67 3.9 WSW 15 17 8 9 1015.0 1015.0 0.0
24/04:00pm 24.6 24.3 15.5 57 5.5 WSW 11 19 6 10 1015.2 1015.2 0.0
24/03:30pm 24.2 24.0 14.6 55 5.7 SW 9 13 5 7 1015.3 1015.3 0.0
24/03:00pm 23.7 22.9 15.2 59 5.1 WSW 13 17 7 9 1016.3 1016.3 0.0
24/02:30pm 24.4 23.4 12.4 47 6.9 NE 9 13 5 7 1016.6 1016.6 0.0
24/02:00pm 24.6 23.0 12.9 48 6.8 ESE 13 19 7 10 1017.0 1017.0 0.0
24/01:30pm 23.8 22.5 13.6 52 5.9 E 13 20 7 11 1017.7 1017.7 0.0
24/01:00pm 22.4 20.6 13.2 56 5.3 ESE 15 22 8 12 1018.3 1018.3 0.0
24/12:30pm 21.1 20.1 13.3 61 4.5 ESE 11 15 6 8 1019.0 1019.0 0.0
24/12:00pm 20.6 19.9 13.3 63 4.2 E 9 17 5 9 1019.4 1019.4 0.0
24/11:30am 20.5 19.5 13.5 64 4.0 SE 11 17 6 9 1019.8 1019.8 0.0
24/11:00am 19.5 19.9 13.7 69 3.3 SE 4 9 2 5 1019.9 1019.9 0.0
24/10:30am 18.5 18.6 13.8 74 2.7 NE 6 9 3 5 1019.9 1019.9 0.0
24/10:00am 17.4 17.6 14.3 82 1.8 N 6 7 3 4 1020.0 1020.0 0.0
24/09:30am 16.3 16.3 14.1 87 1.2 NE 7 9 4 5 1019.9 1019.9 0.0
24/09:00am 15.0 14.5 13.7 92 0.7 N 9 13 5 7 1019.9 1019.9 0.0
24/08:30am 14.5 14.2 13.4 93 0.6 N 7 11 4 6 1019.6 1019.6 0.0
24/08:00am 13.6 13.2 12.5 93 0.6 NNE 6 9 3 5 1019.4 1019.4 0.0
24/07:30am 13.0 12.3 11.9 93 0.6 ENE 7 9 4 5 1018.9 1018.9 0.0
24/07:00am 13.0 12.4 11.6 91 0.7 E 6 7 3 4 1018.6 1018.6 0.0
24/06:30am 13.4 12.8 11.8 90 0.9 ENE 6 7 3 4 1018.7 1018.7 0.0
24/06:00am 13.2 11.5 11.3 88 1.0 ESE 11 13 6 7 1018.7 1018.7 0.0
24/05:30am 14.4 12.7 12.4 88 1.1 ESE 13 19 7 10 1018.7 1018.7 0.0
24/05:00am 15.0 12.3 12.9 87 1.2 ESE 19 24 10 13 1018.4 1018.4 0.0
24/04:30am 15.3 13.0 13.0 86 1.3 ESE 17 26 9 14 1018.7 1018.7 0.0
24/04:00am 15.3 12.6 12.8 85 1.4 ESE 19 24 10 13 1018.9 1018.9 0.0
24/03:30am 15.5 12.3 13.0 85 1.4 SE 22 28 12 15 1019.2 1019.2 0.0
24/03:00am 15.5 13.5 12.8 84 1.5 SE 15 20 8 11 1019.8 1019.8 0.0
24/02:30am 15.6 12.7 12.9 84 1.5 SE 20 24 11 13 1019.7 1019.7 0.0
24/02:00am 15.4 12.4 12.5 83 1.6 SE 20 26 11 14 1019.9 1019.9 0.0
24/01:30am 15.8 13.4 12.5 81 1.8 SE 17 24 9 13 1020.3 1020.3 0.0
24/01:00am 16.5 13.6 12.8 79 2.0 SE 20 30 11 16 1020.3 1020.3 0.0
24/12:30am 16.5 12.1 12.8 79 2.1 ESE 28 35 15 19 1019.8 1019.8 0.0
24/12:00am 17.1 12.9 13.4 79 2.1 ESE 28 35 15 19 1020.3 1020.3 0.0
 
Date/Time
EDT
Temp
°C
App
Temp
°C
Dew
Point
°C
Rel
Hum
%
Delta-T
°C
Wind Press
QNH
hPa
Press
MSL
hPa
Rain since
9am
mm
Dir  Spd
km/h
Gust
km/h
Spd
kts
Gust
kts
23/11:30pm 16.8 11.6 12.9 78 2.2 ESE 32 46 17 25 1020.5 1020.5 0.0
23/11:00pm 17.0 11.6 12.7 76 2.4 ESE 33 44 18 24 1020.3 1020.3 0.0
23/10:30pm 17.3 12.2 13.2 77 2.3 ESE 32 43 17 23 1021.0 1021.0 0.0
23/10:00pm 17.6 12.5 13.1 75 2.5 ESE 32 46 17 25 1020.6 1020.6 0.0
23/09:30pm 18.1 13.9 13.4 74 2.7 ESE 28 41 15 22 1020.1 1020.1 0.0
23/09:00pm 18.5 13.5 13.4 72 2.9 ESE 32 44 17 24 1019.8 1019.8 0.0
23/08:30pm 19.1 14.1 13.5 70 3.2 ESE 32 44 17 24 1019.3 1019.3 0.0
23/08:00pm 19.6 14.0 13.3 67 3.6 ESE 35 48 19 26 1018.8 1018.8 0.0
23/07:30pm 20.1 14.1 13.3 65 3.9 ESE 37 54 20 29 1018.6 1018.6 0.0
23/07:29pm 20.2 14.6 13.4 65 3.9 ESE 35 54 19 29 1018.5 1018.5 0.0
23/07:00pm 20.8 15.3 13.7 64 4.1 ESE 35 50 19 27 1018.6 1018.6 0.0
23/06:30pm 21.7 15.8 13.6 60 4.7 ESE 37 48 20 26 1018.7 1018.7 0.0
23/06:00pm 22.8 17.7 13.8 57 5.2 SE 33 43 18 23 1018.4 1018.4 0.0
23/05:30pm 23.7 18.3 13.8 53 5.8 ESE 35 48 19 26 1018.2 1018.2 0.0
23/05:00pm 23.9 18.3 13.4 51 6.1 SE 35 46 19 25 1018.1 1018.1 0.0
23/04:30pm 24.3 18.7 13.2 50 6.4 ESE 35 52 19 28 1018.1 1018.1 0.0
23/04:00pm 24.3 18.8 13.5 51 6.3 SE 35 48 19 26 1018.2 1018.2 0.0
23/03:30pm 24.4 18.9 13.6 51 6.3 SE 35 46 19 25 1018.4 1018.4 0.0
23/03:00pm 23.6 18.0 13.2 52 6.0 SE 35 44 19 24 1018.7 1018.7 0.0
23/02:30pm 23.5 18.2 13.1 52 6.0 SE 33 43 18 23 1018.9 1018.9 0.0
23/02:00pm 23.3 18.1 13.5 54 5.7 SE 33 43 18 23 1019.2 1019.2 0.0
23/01:30pm 23.6 18.4 13.5 53 5.9 ESE 33 48 18 26 1019.4 1019.4 0.0
23/01:00pm 22.3 17.2 13.1 56 5.3 ESE 32 43 17 23 1019.9 1019.9 0.0
23/12:30pm 22.5 17.4 13.6 57 5.2 ESE 33 43 18 23 1020.1 1020.1 0.0
23/12:00pm 21.4 16.1 13.1 59 4.7 ESE 33 44 18 24 1020.4 1020.4 0.0
23/11:30am 20.9 14.4 12.8 60 4.6 ESE 39 52 21 28 1020.4 1020.4 0.0
23/11:00am 21.2 15.5 13.1 60 4.6 ESE 35 46 19 25 1020.6 1020.6 0.0
23/10:30am 20.3 13.9 13.3 64 4.0 ESE 39 54 21 29 1020.6 1020.6 0.0
23/10:10am 19.8 13.1 13.3 66 3.7 ESE 41 59 22 32 1020.7 1020.7 0.0
23/10:00am 18.6 12.1 13.0 70 3.1 ESE 39 50 21 27 1020.7 1020.7 0.0
23/09:30am 18.1 13.7 14.0 77 2.3 ESE 30 43 16 23 1020.6 1020.6 0.0
23/09:00am 17.6 12.5 13.7 78 2.2 ESE 33 46 18 25 1020.4 1020.4 0.0
23/08:30am 17.0 12.4 13.5 80 2.0 ESE 30 39 16 21 1020.4 1020.4 0.0
23/08:00am 16.7 12.5 13.6 82 1.7 SE 28 37 15 20 1020.2 1020.2 0.0
23/07:30am 16.5 13.1 13.6 83 1.6 SE 24 32 13 17 1019.9 1019.9 0.0
23/07:00am 16.6 13.1 13.5 82 1.7 SE 24 35 13 19 1019.7 1019.7 0.0
23/06:30am 16.3 13.2 13.4 83 1.6 SE 22 30 12 16 1019.4 1019.4 0.0
23/06:00am 16.4 12.9 13.5 83 1.6 SE 24 33 13 18 1019.3 1019.3 0.0
23/05:30am 16.0 12.0 13.1 83 1.6 SE 26 32 14 17 1019.2 1019.2 0.0
23/05:00am 16.2 11.9 13.1 82 1.7 SE 28 35 15 19 1019.2 1019.2 0.0
23/04:30am 16.3 12.4 13.2 82 1.7 SE 26 43 14 23 1019.2 1019.2 0.0
23/04:00am 15.9 12.3 13.0 83 1.6 SE 24 33 13 18 1019.1 1019.1 0.0
23/03:30am 16.1 12.2 13.2 83 1.6 SE 26 35 14 19 1019.1 1019.1 0.0
23/03:00am 16.1 11.7 13.0 82 1.7 ESE 28 41 15 22 1018.9 1018.9 0.0
23/02:30am 15.6 11.8 12.5 82 1.7 SE 24 30 13 16 1018.9 1018.9 0.0
23/02:00am 16.3 11.4 12.7 79 2.0 SE 30 41 16 22 1019.6 1019.6 0.0
23/01:30am 17.8 12.7 13.7 77 2.3 ESE 33 43 18 23 1019.6 1019.6 0.0
23/01:09am 17.6 13.1 13.7 78 2.2 ESE 30 48 16 26 1019.8 1019.8 0.0
23/01:00am 17.5 12.9 13.4 77 2.3 ESE 30 41 16 22 1019.8 1019.8 0.0
23/12:45am 17.5 12.5 13.4 77 2.3 ESE 32 52 17 28 1019.8 1019.8 0.0
23/12:30am 17.3 12.0 13.2 77 2.3 ESE 33 48 18 26 1019.8 1019.8 0.0
23/12:27am 17.2 12.5 13.3 78 2.2 ESE 30 48 16 26 1019.8 1019.8 0.0
23/12:00am 17.4 11.8 13.3 77 2.3 ESE 35 46 19 25 1019.8 1019.8 0.0
 
Date/Time
EDT
Temp
°C
App
Temp
°C
Dew
Point
°C
Rel
Hum
%
Delta-T
°C
Wind Press
QNH
hPa
Press
MSL
hPa
Rain since
9am
mm
Dir  Spd
km/h
Gust
km/h
Spd
kts
Gust
kts
22/11:45pm 17.2 12.0 13.5 79 2.1 ESE 33 52 18 28 1019.8 1019.8 0.0
22/11:30pm 17.2 12.0 13.5 79 2.1 ESE 33 46 18 25 1019.8 1019.8 0.0
22/11:17pm 17.4 12.6 13.9 80 2.0 ESE 32 52 17 28 1019.7 1019.7 0.0
22/11:00pm 17.4 12.6 13.9 80 2.0 ESE 32 43 17 23 1019.9 1019.9 0.0
22/10:30pm 17.6 12.8 14.1 80 2.0 SE 32 44 17 24 1019.8 1019.8 0.0
22/10:00pm 17.9 13.9 14.2 79 2.1 SE 28 37 15 20 1019.6 1019.6 0.0
22/09:30pm 18.1 13.4 14.2 78 2.2 ESE 32 41 17 22 1019.5 1019.5 0.0
22/09:00pm 18.2 15.4 14.3 78 2.2 ESE 22 33 12 18 1019.1 1019.1 0.0
22/08:30pm 18.8 15.2 14.3 75 2.6 SE 26 41 14 22 1018.5 1018.5 0.0
22/08:00pm 18.7 15.5 14.2 75 2.6 SE 24 35 13 19 1018.0 1018.0 0.0
22/07:30pm 19.2 13.4 14.0 72 3.0 SE 37 50 20 27 1017.4 1017.4 0.0
22/07:00pm 19.5 14.5 14.1 71 3.1 SE 33 44 18 24 1017.2 1017.2 0.0
22/06:30pm 19.9 14.3 14.5 71 3.1 SE 37 48 20 26 1017.1 1017.1 0.0
22/06:00pm 19.8 14.7 14.8 73 2.9 SE 35 48 19 26 1016.9 1016.9 0.0
22/05:30pm 20.1 16.1 16.1 78 2.4 SE 32 41 17 22 1016.7 1016.7 0.0
22/05:00pm 20.2 15.9 15.4 74 2.8 SE 32 44 17 24 1016.9 1016.9 0.0
22/04:30pm 21.2 16.4 15.5 70 3.4 SE 35 44 19 24 1016.5 1016.5 0.0
22/04:00pm 20.6 16.2 15.2 71 3.2 SE 32 39 17 21 1016.5 1016.5 0.0
22/03:30pm 20.7 17.2 15.5 72 3.1 SE 28 39 15 21 1016.7 1016.7 0.0
22/03:00pm 20.8 16.9 15.6 72 3.1 SE 30 39 16 21 1016.6 1016.6 0.0

Latest Capital City Observations: Canberra | Sydney | Melbourne | Brisbane | Adelaide | Perth | Hobart | Darwin

Other Formats:

Comma delimited format used in spreadsheet applications
http://www.bom.gov.au/fwo/IDV60901/IDV60901.94870.axf

JavaScript Object Notation format (JSON) in row-major order
http://www.bom.gov.au/fwo/IDV60901/IDV60901.94870.json